createdAt,value
2024-05-09T00:00:36.279Z,55.17
2024-05-09T00:03:10.586Z,54.43
2024-05-09T00:05:40.101Z,54.37
2024-05-09T00:08:07.119Z,52.63
2024-05-09T00:10:37.451Z,50.30
2024-05-09T00:13:09.250Z,55.97
2024-05-09T00:15:36.856Z,54.20
2024-05-09T00:18:04.552Z,52.67
2024-05-09T00:20:37.991Z,59.03
2024-05-09T00:23:08.691Z,55.17
2024-05-09T00:25:35.752Z,61.13
2024-05-09T00:28:02.696Z,64.53
2024-05-09T00:30:34.387Z,56.53
2024-05-09T00:33:04.546Z,58.83
2024-05-09T00:35:32.009Z,55.00
2024-05-09T00:37:58.644Z,64.93
2024-05-09T00:40:35.302Z,62.10
2024-05-09T00:43:06.348Z,66.87
2024-05-09T00:45:34.319Z,66.43
2024-05-09T00:48:03.192Z,66.47
2024-05-09T00:50:35.980Z,64.93
2024-05-09T00:53:05.218Z,68.67
2024-05-09T00:55:32.037Z,66.97
2024-05-09T00:57:58.578Z,66.40
2024-05-09T01:00:31.687Z,69.37
2024-05-09T01:03:05.630Z,66.73
2024-05-09T01:05:32.670Z,66.80
2024-05-09T01:07:59.306Z,66.23
2024-05-09T01:10:33.536Z,71.23
2024-05-09T01:13:02.883Z,70.47
2024-05-09T01:15:29.421Z,63.07
2024-05-09T01:17:56.863Z,65.80
2024-05-09T01:20:32.223Z,70.77
2024-05-09T01:23:07.509Z,69.43
2024-05-09T01:25:35.304Z,81.53
2024-05-09T01:28:01.925Z,77.83
2024-05-09T01:30:34.393Z,74.63
2024-05-09T01:33:04.019Z,75.93
2024-05-09T01:35:30.884Z,79.17
2024-05-09T01:37:57.527Z,73.57
2024-05-09T01:40:33.484Z,76.53
2024-05-09T01:43:04.688Z,80.23
2024-05-09T01:45:31.375Z,87.70
2024-05-09T01:47:58.304Z,80.87
2024-05-09T01:50:36.238Z,76.77
2024-05-09T01:53:06.563Z,76.50
2024-05-09T01:55:33.133Z,77.63
2024-05-09T01:57:59.622Z,76.13
2024-05-09T02:00:36.141Z,79.20
2024-05-09T02:03:11.536Z,75.63
2024-05-09T02:05:41.007Z,78.07
2024-05-09T02:08:12.888Z,80.97
2024-05-09T02:10:39.451Z,79.93
2024-05-09T02:13:07.676Z,82.60
2024-05-09T02:15:34.183Z,77.43
2024-05-09T02:18:00.945Z,81.97
2024-05-09T02:20:35.186Z,82.03
2024-05-09T02:23:05.007Z,81.03
2024-05-09T02:25:32.512Z,81.67
2024-05-09T02:27:59.372Z,82.77
2024-05-09T02:30:36.164Z,77.20
2024-05-09T02:33:07.531Z,81.23
2024-05-09T02:35:34.627Z,72.47
2024-05-09T02:38:01.409Z,79.93
2024-05-09T02:40:35.918Z,79.50
2024-05-09T02:43:05.782Z,88.47
2024-05-09T02:45:33.034Z,80.23
2024-05-09T02:47:59.912Z,77.10
2024-05-09T02:50:34.366Z,82.73
2024-05-09T02:53:05.695Z,81.47
2024-05-09T02:55:32.668Z,78.33
2024-05-09T02:57:59.463Z,80.10
2024-05-09T03:00:34.669Z,76.03
2024-05-09T03:03:07.617Z,77.73
2024-05-09T03:05:35.458Z,82.13
2024-05-09T03:08:02.178Z,75.50
2024-05-09T03:10:32.641Z,80.20
2024-05-09T03:13:09.257Z,76.23
2024-05-09T03:15:36.213Z,78.47
2024-05-09T03:18:03.593Z,75.47
2024-05-09T03:20:34.377Z,79.87
2024-05-09T03:23:03.287Z,73.97
2024-05-09T03:25:30.067Z,77.13
2024-05-09T03:27:56.681Z,81.53
2024-05-09T03:30:35.831Z,81.00
2024-05-09T03:33:13.962Z,76.17
2024-05-09T03:35:41.739Z,78.37
2024-05-09T03:38:08.436Z,77.97
2024-05-09T03:40:35.153Z,74.63
2024-05-09T03:43:01.759Z,80.87
2024-05-09T03:45:28.270Z,76.60
2024-05-09T03:47:55.098Z,72.97
2024-05-09T03:50:29.907Z,83.33
2024-05-09T03:53:01.990Z,80.73
2024-05-09T03:55:28.720Z,74.60
2024-05-09T03:57:55.319Z,77.23
2024-05-09T04:00:30.894Z,77.50
2024-05-09T04:03:04.135Z,80.20
2024-05-09T04:05:31.199Z,79.33
2024-05-09T04:07:58.315Z,88.77
2024-05-09T04:10:32.374Z,73.03
2024-05-09T04:13:00.632Z,71.40
2024-05-09T04:15:27.210Z,86.33
2024-05-09T04:17:54.041Z,75.50
2024-05-09T04:20:32.817Z,74.90
2024-05-09T04:23:06.012Z,80.47
2024-05-09T04:25:32.739Z,81.50
2024-05-09T04:27:59.366Z,75.60
2024-05-09T04:30:34.785Z,73.97
2024-05-09T04:33:06.079Z,79.87
2024-05-09T04:35:33.156Z,77.20
2024-05-09T04:38:00.506Z,73.13
2024-05-09T04:40:33.152Z,69.17
2024-05-09T04:43:03.602Z,69.40
2024-05-09T04:45:30.322Z,78.17
2024-05-09T04:47:57.053Z,71.30
2024-05-09T04:50:32.741Z,80.27
2024-05-09T04:53:03.751Z,77.40
2024-05-09T04:55:30.505Z,76.43
2024-05-09T04:57:57.127Z,79.67
2024-05-09T05:00:32.410Z,69.13
2024-05-09T05:03:06.892Z,69.53
2024-05-09T05:05:34.746Z,76.50
2024-05-09T05:08:01.411Z,69.03
2024-05-09T05:10:33.965Z,67.27
2024-05-09T05:13:16.431Z,75.57
2024-05-09T05:15:43.944Z,75.13
2024-05-09T05:18:10.635Z,72.73
2024-05-09T05:20:37.471Z,74.27
2024-05-09T05:23:08.142Z,74.70
2024-05-09T05:25:34.673Z,74.37
2024-05-09T05:28:01.192Z,80.63
2024-05-09T05:30:32.798Z,76.50
2024-05-09T05:33:01.382Z,79.83
2024-05-09T05:35:28.156Z,72.80
2024-05-09T05:37:54.809Z,72.67
2024-05-09T05:40:28.510Z,72.87
2024-05-09T05:43:02.882Z,77.20
2024-05-09T05:45:29.431Z,67.90
2024-05-09T05:47:56.192Z,73.37
2024-05-09T05:50:28.074Z,68.20
2024-05-09T05:53:01.956Z,66.50
2024-05-09T05:55:28.519Z,65.20
2024-05-09T05:57:55.073Z,59.70
2024-05-09T06:00:29.414Z,63.33
2024-05-09T06:03:02.335Z,66.80
2024-05-09T06:05:29.147Z,66.80
2024-05-09T06:07:55.903Z,65.10
2024-05-09T06:10:26.332Z,66.03
2024-05-09T06:13:01.379Z,56.53
2024-05-09T06:15:27.907Z,56.37
2024-05-09T06:17:54.713Z,55.37
2024-05-09T06:20:31.240Z,57.80
2024-05-09T06:23:03.083Z,57.83
2024-05-09T06:25:29.803Z,57.40
2024-05-09T06:27:56.382Z,73.27
2024-05-09T06:30:30.131Z,71.97
2024-05-09T06:33:05.350Z,69.93
2024-05-09T06:35:32.832Z,68.63
2024-05-09T06:37:59.642Z,64.27
2024-05-09T06:40:35.456Z,60.83
2024-05-09T06:45:33.659Z,61.20
2024-05-09T06:48:00.311Z,61.83
2024-05-09T06:50:35.286Z,59.10
2024-05-09T06:53:04.200Z,61.00
2024-05-09T06:55:30.753Z,59.03
2024-05-09T06:57:57.287Z,53.60
2024-05-09T07:00:30.742Z,73.90
2024-05-09T07:03:13.075Z,95.97
2024-05-09T07:05:41.870Z,59.90
2024-05-09T07:08:08.518Z,56.20
2024-05-09T07:10:36.428Z,54.20
2024-05-09T07:13:10.794Z,55.97
2024-05-09T07:15:37.825Z,50.47
2024-05-09T07:18:20.170Z,50.93
2024-05-09T07:20:48.982Z,50.77
2024-05-09T07:23:16.591Z,52.37
2024-05-09T07:25:43.254Z,49.83
2024-05-09T07:28:14.167Z,66.93
2024-05-09T07:30:41.341Z,72.57
2024-05-09T07:33:07.990Z,51.17
2024-05-09T07:35:34.806Z,49.67
2024-05-09T07:38:01.546Z,48.27
2024-05-09T07:40:34.827Z,49.60
2024-05-09T07:43:04.390Z,50.17
2024-05-09T07:45:47.922Z,52.57
2024-05-09T07:53:38.574Z,54.13
2024-05-09T07:56:07.946Z,50.03
2024-05-09T07:58:35.588Z,48.03
2024-05-09T08:01:04.942Z,50.93
2024-05-09T08:03:31.726Z,54.13
2024-05-09T08:05:58.372Z,49.50
2024-05-09T08:08:24.898Z,47.90
2024-05-09T08:10:51.864Z,51.20
2024-05-09T08:13:18.580Z,44.77
2024-05-09T08:15:45.343Z,49.97
2024-05-09T08:18:12.209Z,45.00
2024-05-09T08:20:40.109Z,47.50
2024-05-09T08:23:07.115Z,47.20
2024-05-09T08:25:33.694Z,43.97
2024-05-09T08:28:00.301Z,47.53
2024-05-09T08:30:33.430Z,91.23
2024-05-09T08:33:04.510Z,62.90
2024-05-09T08:35:31.797Z,47.60
2024-05-09T08:37:58.555Z,44.60
2024-05-09T08:40:32.901Z,47.40
2024-05-09T08:43:02.871Z,44.73
2024-05-09T08:45:31.183Z,46.13
2024-05-09T08:47:59.475Z,43.80
2024-05-09T08:50:32.439Z,42.23
2024-05-09T08:53:05.469Z,43.60
2024-05-09T08:55:32.319Z,42.60
2024-05-09T08:58:00.886Z,56.23
2024-05-09T09:00:35.795Z,45.17
2024-05-09T09:03:05.856Z,41.63
2024-05-09T09:05:34.246Z,38.00
2024-05-09T09:08:04.557Z,38.33
2024-05-09T09:10:32.689Z,38.57
2024-05-09T09:13:09.412Z,39.63
2024-05-09T09:15:46.965Z,42.87
2024-05-09T09:18:14.942Z,33.87
2024-05-09T09:20:41.903Z,32.37
2024-05-09T09:23:08.721Z,31.43
2024-05-09T09:25:35.229Z,31.63
2024-05-09T09:28:01.828Z,29.77
2024-05-09T09:30:36.187Z,24.13
2024-05-09T09:33:06.110Z,22.90
2024-05-09T09:35:33.024Z,22.90
2024-05-09T09:38:02.815Z,23.73
2024-05-09T09:40:35.900Z,23.03
2024-05-09T09:43:08.831Z,26.17
2024-05-09T09:45:35.929Z,26.47
2024-05-09T09:48:02.896Z,19.07
2024-05-09T09:50:34.359Z,17.63
2024-05-09T09:53:03.603Z,16.03
2024-05-09T09:55:32.639Z,16.45
2024-05-09T09:57:59.667Z,13.73
2024-05-09T10:00:32.537Z,14.70
2024-05-09T10:03:00.549Z,14.10
2024-05-09T10:05:28.136Z,14.27
2024-05-09T10:07:55.304Z,13.07
2024-05-09T10:10:30.282Z,13.77
2024-05-09T10:13:00.155Z,16.40
2024-05-09T10:15:26.870Z,14.93
2024-05-09T10:17:53.553Z,23.17
2024-05-09T10:20:24.717Z,14.52
2024-05-09T10:22:54.390Z,13.75
2024-05-09T10:25:21.216Z,14.18
2024-05-09T10:27:55.002Z,13.05
2024-05-09T10:30:29.743Z,12.25
2024-05-09T10:33:02.324Z,11.00
2024-05-09T10:35:31.417Z,10.30
2024-05-09T10:38:05.652Z,8.48
2024-05-09T10:40:32.328Z,10.77
2024-05-09T10:43:02.592Z,11.13
2024-05-09T10:45:31.976Z,11.38
2024-05-09T10:47:58.824Z,9.48
2024-05-09T10:50:29.138Z,7.82
2024-05-09T10:53:00.472Z,7.53
2024-05-09T10:55:27.454Z,6.28
2024-05-09T10:57:54.157Z,6.30
2024-05-09T11:00:27.591Z,4.97
2024-05-09T11:03:00.139Z,16.48
2024-05-09T11:05:26.930Z,5.63
2024-05-09T11:07:53.736Z,4.97
2024-05-09T11:10:27.401Z,5.18
2024-05-09T11:12:58.538Z,6.03
2024-05-09T11:15:25.833Z,5.30
2024-05-09T11:17:52.624Z,6.97
2024-05-09T11:20:26.798Z,5.72
2024-05-09T11:22:57.690Z,6.25
2024-05-09T11:25:24.436Z,6.25
2024-05-09T11:27:51.179Z,7.68
2024-05-09T11:30:26.782Z,6.45
2024-05-09T11:32:58.732Z,7.68
2024-05-09T11:35:26.472Z,8.55
2024-05-09T11:37:53.057Z,10.90
2024-05-09T11:40:25.434Z,10.07
2024-05-09T11:42:55.261Z,9.68
2024-05-09T11:45:22.013Z,8.65
2024-05-09T11:47:48.854Z,9.57
2024-05-09T11:50:22.623Z,7.82
2024-05-09T11:52:56.054Z,8.48
2024-05-09T11:55:26.797Z,9.82
2024-05-09T11:57:54.635Z,8.60
2024-05-09T12:00:29.516Z,7.75
2024-05-09T12:03:04.641Z,7.60
2024-05-09T12:05:31.761Z,6.45
2024-05-09T12:07:58.592Z,6.60
2024-05-09T12:10:32.650Z,8.07
2024-05-09T12:13:02.012Z,8.80
2024-05-09T12:15:28.881Z,10.65
2024-05-09T12:17:58.198Z,9.93
2024-05-09T12:20:34.765Z,6.55
2024-05-09T12:23:04.504Z,8.07
2024-05-09T12:25:31.108Z,7.53
2024-05-09T12:27:57.781Z,8.18
2024-05-09T12:30:33.059Z,11.00
2024-05-09T12:33:04.680Z,8.18
2024-05-09T12:35:31.615Z,7.00
2024-05-09T12:37:58.165Z,24.05
2024-05-09T12:40:34.201Z,11.27
2024-05-09T12:43:04.697Z,6.57
2024-05-09T12:45:32.186Z,5.78
2024-05-09T12:47:59.074Z,5.90
2024-05-09T12:50:32.254Z,7.68
2024-05-09T12:53:01.167Z,4.95
2024-05-09T12:55:28.669Z,4.80
2024-05-09T12:57:58.438Z,5.72
2024-05-09T13:00:33.830Z,6.30
2024-05-09T13:03:09.541Z,5.55
2024-05-09T13:05:36.329Z,10.43
2024-05-09T13:08:03.891Z,4.88
2024-05-09T13:10:32.803Z,4.53
2024-05-09T13:13:01.349Z,6.82
2024-05-09T13:15:30.051Z,5.82
2024-05-09T13:18:02.639Z,6.35
2024-05-09T13:20:34.302Z,7.18
2024-05-09T13:23:06.737Z,5.25
2024-05-09T13:25:35.124Z,4.95
2024-05-09T13:28:02.607Z,5.72
2024-05-09T13:30:38.244Z,4.57
2024-05-09T13:33:08.654Z,6.07
2024-05-09T13:35:36.099Z,4.10
2024-05-09T13:38:03.739Z,5.88
2024-05-09T13:40:34.456Z,4.45
2024-05-09T13:43:04.058Z,3.40
2024-05-09T13:45:30.940Z,4.05
2024-05-09T13:47:57.696Z,6.18
2024-05-09T13:50:33.064Z,5.13
2024-05-09T13:53:02.666Z,6.65
2024-05-09T13:55:29.277Z,5.43
2024-05-09T13:57:56.022Z,5.55
2024-05-09T14:00:33.181Z,4.57
2024-05-09T14:03:09.559Z,4.82
2024-05-09T14:05:36.666Z,6.72
2024-05-09T14:08:03.575Z,7.57
2024-05-09T14:10:31.931Z,7.18
2024-05-09T14:12:59.706Z,7.05
2024-05-09T14:15:26.574Z,19.02
2024-05-09T14:17:53.587Z,8.75
2024-05-09T14:20:29.981Z,7.47
2024-05-09T14:22:59.237Z,6.70
2024-05-09T14:25:28.280Z,5.75
2024-05-09T14:27:55.221Z,5.70
2024-05-09T14:30:30.505Z,7.82
2024-05-09T14:33:03.473Z,6.78
2024-05-09T14:35:30.203Z,8.20
2024-05-09T14:37:56.820Z,5.47
2024-05-09T14:40:36.102Z,10.18
2024-05-09T14:43:07.872Z,5.95
2024-05-09T14:45:34.770Z,5.13
2024-05-09T14:48:02.279Z,7.47
2024-05-09T14:50:35.471Z,7.13
2024-05-09T14:53:05.932Z,6.03
2024-05-09T14:55:35.180Z,6.50
2024-05-09T14:58:02.934Z,6.38
2024-05-09T15:00:35.432Z,5.25
2024-05-09T15:03:03.712Z,5.30
2024-05-09T15:05:30.689Z,5.93
2024-05-09T15:07:58.122Z,5.22
2024-05-09T15:10:33.697Z,5.97
2024-05-09T15:13:04.137Z,5.80
2024-05-09T15:15:31.189Z,4.63
2024-05-09T15:17:57.943Z,5.70
2024-05-09T15:20:32.965Z,5.85
2024-05-09T15:23:02.557Z,5.10
2024-05-09T15:25:29.434Z,4.35
2024-05-09T15:27:56.345Z,9.55
2024-05-09T15:32:52.712Z,6.15
2024-05-09T15:35:20.002Z,6.05
2024-05-09T15:37:48.386Z,5.88
2024-05-09T15:40:22.087Z,11.98
2024-05-09T15:42:57.732Z,6.80
2024-05-09T15:45:24.333Z,8.18
2024-05-09T15:47:50.926Z,6.05
2024-05-09T15:50:27.573Z,5.75
2024-05-09T15:52:59.257Z,6.07
2024-05-09T15:55:26.177Z,5.72
2024-05-09T15:57:52.755Z,5.82
2024-05-09T16:00:28.420Z,6.90
2024-05-09T16:03:00.904Z,5.00
2024-05-09T16:05:27.690Z,5.18
2024-05-09T16:07:54.423Z,4.63
2024-05-09T16:10:25.928Z,7.63
2024-05-09T16:12:58.738Z,7.60
2024-05-09T16:15:25.395Z,6.50
2024-05-09T16:17:52.022Z,38.35
2024-05-09T16:20:29.602Z,10.80
2024-05-09T16:23:04.884Z,6.32
2024-05-09T16:25:31.456Z,5.03
2024-05-09T16:27:59.365Z,5.93
2024-05-09T16:30:32.150Z,5.38
2024-05-09T16:33:02.833Z,5.53
2024-05-09T16:35:29.669Z,5.20
2024-05-09T16:37:56.260Z,6.70
2024-05-09T16:40:30.284Z,6.05
2024-05-09T16:43:04.530Z,6.50
2024-05-09T16:45:31.517Z,6.53
2024-05-09T16:47:59.371Z,8.15
2024-05-09T16:50:31.119Z,5.95
2024-05-09T16:52:59.995Z,8.23
2024-05-09T16:55:26.806Z,7.25
2024-05-09T16:57:53.528Z,6.05
2024-05-09T17:00:31.052Z,5.45
2024-05-09T17:03:06.200Z,6.22
2024-05-09T17:05:33.562Z,6.80
2024-05-09T17:08:01.113Z,9.02
2024-05-09T17:10:32.655Z,7.20
2024-05-09T17:13:02.118Z,8.10
2024-05-09T17:15:28.979Z,6.70
2024-05-09T17:17:56.029Z,16.15
2024-05-09T17:20:29.710Z,12.02
2024-05-09T17:23:01.990Z,9.23
2024-05-09T17:25:28.648Z,9.07
2024-05-09T17:27:55.570Z,8.48
2024-05-09T17:30:29.086Z,9.18
2024-05-09T17:33:02.140Z,8.70
2024-05-09T17:35:29.111Z,10.10
2024-05-09T17:37:55.928Z,11.93
2024-05-09T17:40:30.890Z,12.53
2024-05-09T17:43:01.603Z,12.40
2024-05-09T17:45:28.577Z,13.53
2024-05-09T17:47:55.501Z,12.90
2024-05-09T17:50:28.017Z,13.17
2024-05-09T17:53:01.684Z,13.33
2024-05-09T17:55:28.609Z,14.20
2024-05-09T17:57:55.495Z,13.80
2024-05-09T18:00:32.724Z,21.10
2024-05-09T18:03:05.394Z,16.53
2024-05-09T18:05:32.379Z,13.40
2024-05-09T18:07:59.195Z,18.27
2024-05-09T18:10:33.118Z,24.13
2024-05-09T18:13:05.483Z,17.60
2024-05-09T18:15:32.635Z,16.80
2024-05-09T18:17:59.613Z,16.27
2024-05-09T18:20:36.650Z,15.90
2024-05-09T18:23:08.844Z,15.90
2024-05-09T18:25:35.448Z,15.40
2024-05-09T18:28:03.151Z,16.17
2024-05-09T18:30:34.777Z,15.57
2024-05-09T18:33:04.484Z,17.07
2024-05-09T18:35:31.793Z,16.17
2024-05-09T18:37:58.397Z,16.83
2024-05-09T18:40:32.938Z,17.33
2024-05-09T18:43:03.478Z,18.00
2024-05-09T18:45:30.623Z,18.70
2024-05-09T18:47:57.613Z,17.60
2024-05-09T18:50:32.508Z,19.10
2024-05-09T18:53:05.724Z,33.60
2024-05-09T18:55:32.426Z,44.13
2024-05-09T18:57:59.110Z,19.87
2024-05-09T19:00:33.959Z,19.93
2024-05-09T19:03:05.972Z,18.80
2024-05-09T19:05:35.275Z,20.00
2024-05-09T19:08:02.709Z,19.23
2024-05-09T19:10:34.154Z,19.37
2024-05-09T19:13:05.428Z,19.37
2024-05-09T19:15:35.642Z,20.47
2024-05-09T19:18:02.524Z,21.43
2024-05-09T19:20:34.161Z,21.23
2024-05-09T19:23:02.393Z,21.03
2024-05-09T19:25:29.033Z,21.03
2024-05-09T19:27:55.727Z,21.03
2024-05-09T19:30:30.178Z,22.50
2024-05-09T19:33:04.933Z,22.07
2024-05-09T19:35:32.271Z,22.90
2024-05-09T19:37:59.010Z,22.97
2024-05-09T19:40:31.257Z,23.93
2024-05-09T19:43:00.264Z,23.03
2024-05-09T19:45:26.935Z,24.37
2024-05-09T19:47:53.743Z,25.30
2024-05-09T19:50:27.054Z,23.97
2024-05-09T19:53:02.811Z,24.67
2024-05-09T19:55:29.464Z,23.50
2024-05-09T19:57:56.093Z,25.00
2024-05-09T20:00:29.427Z,25.33
2024-05-09T20:03:02.132Z,25.23
2024-05-09T20:05:30.984Z,26.37
2024-05-09T20:07:57.971Z,26.30
2024-05-09T20:10:31.383Z,25.63
2024-05-09T20:13:00.136Z,26.03
2024-05-09T20:15:26.888Z,31.47
2024-05-09T20:17:53.821Z,30.17
2024-05-09T20:20:28.686Z,27.43
2024-05-09T20:23:03.144Z,25.80
2024-05-09T20:25:29.890Z,26.60
2024-05-09T20:27:56.476Z,26.87
2024-05-09T20:30:30.476Z,26.07
2024-05-09T20:32:59.730Z,27.53
2024-05-09T20:35:26.636Z,27.60
2024-05-09T20:37:53.298Z,27.33
2024-05-09T20:40:28.256Z,27.20
2024-05-09T20:42:59.190Z,26.93
2024-05-09T20:45:25.873Z,28.13
2024-05-09T20:47:52.610Z,29.13
2024-05-09T20:50:28.146Z,29.30
2024-05-09T20:53:02.600Z,29.33
2024-05-09T20:55:29.816Z,29.27
2024-05-09T20:57:56.851Z,29.10
2024-05-09T21:00:30.254Z,29.50
2024-05-09T21:03:05.855Z,28.43
2024-05-09T21:05:33.020Z,82.57
2024-05-09T21:07:59.811Z,36.47
2024-05-09T21:10:27.264Z,32.17
2024-05-09T21:12:56.447Z,29.93
2024-05-09T21:15:23.127Z,31.40
2024-05-09T21:17:49.720Z,31.40
2024-05-09T21:20:20.635Z,33.53
2024-05-09T21:22:50.874Z,30.80
2024-05-09T21:25:17.469Z,31.57
2024-05-09T21:27:44.156Z,31.97
2024-05-09T21:30:18.412Z,32.43
2024-05-09T21:32:50.223Z,32.50
2024-05-09T21:35:19.957Z,31.83
2024-05-09T21:37:46.997Z,32.10
2024-05-09T21:40:17.188Z,33.00
2024-05-09T21:42:50.928Z,34.13
2024-05-09T21:45:17.537Z,33.43
2024-05-09T21:47:44.265Z,33.07
2024-05-09T21:50:22.039Z,33.03
2024-05-09T21:52:50.271Z,32.70
2024-05-09T21:55:16.894Z,33.07
2024-05-09T21:57:43.461Z,31.20
2024-05-09T22:00:25.161Z,32.80
2024-05-09T22:02:59.294Z,34.13
2024-05-09T22:05:26.055Z,34.50
2024-05-09T22:07:52.591Z,34.83
2024-05-09T22:10:25.749Z,34.77
2024-05-09T22:12:56.910Z,33.80
2024-05-09T22:15:23.438Z,33.07
2024-05-09T22:17:50.046Z,32.63
2024-05-09T22:20:22.351Z,34.77
2024-05-09T22:22:55.635Z,35.33
2024-05-09T22:25:22.377Z,36.30
2024-05-09T22:27:49.003Z,36.20
2024-05-09T22:30:23.676Z,35.13
2024-05-09T22:32:54.219Z,36.40
2024-05-09T22:35:20.756Z,37.40
2024-05-09T22:37:47.413Z,35.33
2024-05-09T22:40:20.747Z,38.90
2024-05-09T22:42:55.001Z,38.73
2024-05-09T22:45:21.535Z,37.47
2024-05-09T22:47:48.243Z,37.70
2024-05-09T22:50:22.362Z,39.03
2024-05-09T22:52:52.985Z,39.33
2024-05-09T22:55:19.588Z,38.93
2024-05-09T22:57:46.223Z,38.60
2024-05-09T23:00:15.969Z,43.10
2024-05-09T23:02:42.911Z,41.90
2024-05-09T23:05:09.751Z,40.27
2024-05-09T23:07:36.465Z,45.10
2024-05-09T23:10:04.351Z,44.30
2024-05-09T23:12:32.034Z,46.10
2024-05-09T23:14:58.603Z,44.17
2024-05-09T23:17:25.226Z,42.17
2024-05-09T23:19:51.884Z,41.17
2024-05-09T23:22:18.540Z,44.17
2024-05-09T23:24:45.146Z,41.20
2024-05-09T23:27:11.740Z,39.40
2024-05-09T23:29:38.237Z,41.57
2024-05-09T23:32:05.034Z,41.77
2024-05-09T23:34:32.330Z,39.87
2024-05-09T23:36:58.910Z,43.10
2024-05-09T23:39:25.527Z,42.57
2024-05-09T23:41:52.122Z,42.97
2024-05-09T23:44:19.301Z,46.10
2024-05-09T23:46:45.953Z,43.70
2024-05-09T23:49:12.775Z,44.37
2024-05-09T23:51:39.421Z,43.33
2024-05-09T23:54:08.317Z,44.17
2024-05-09T23:56:34.849Z,42.47
2024-05-09T23:59:01.419Z,43.37
